sensor_id;sensor_type;location;lat;lon;timestamp;P1;durP1;ratioP1;P2;durP2;ratioP2
54871;SDS011;43914;57.680;11.982;2023-07-29T00:00:48;6.40;;;2.50;;
54871;SDS011;43914;57.680;11.982;2023-07-29T00:03:14;7.30;;;2.60;;
54871;SDS011;43914;57.680;11.982;2023-07-29T00:05:39;5.90;;;2.30;;
54871;SDS011;43914;57.680;11.982;2023-07-29T00:08:06;7.60;;;2.70;;
54871;SDS011;43914;57.680;11.982;2023-07-29T00:10:32;7.40;;;2.60;;
54871;SDS011;43914;57.680;11.982;2023-07-29T00:13:02;7.40;;;2.80;;
54871;SDS011;43914;57.680;11.982;2023-07-29T00:15:29;6.70;;;2.80;;
54871;SDS011;43914;57.680;11.982;2023-07-29T00:17:54;7.60;;;2.80;;
54871;SDS011;43914;57.680;11.982;2023-07-29T00:20:19;6.90;;;2.70;;
54871;SDS011;43914;57.680;11.982;2023-07-29T00:22:45;8.60;;;2.50;;
54871;SDS011;43914;57.680;11.982;2023-07-29T00:25:10;7.00;;;2.60;;
54871;SDS011;43914;57.680;11.982;2023-07-29T00:27:36;7.80;;;2.80;;
54871;SDS011;43914;57.680;11.982;2023-07-29T00:30:01;8.10;;;2.60;;
54871;SDS011;43914;57.680;11.982;2023-07-29T00:32:28;8.30;;;2.70;;
54871;SDS011;43914;57.680;11.982;2023-07-29T00:34:55;9.30;;;2.70;;
54871;SDS011;43914;57.680;11.982;2023-07-29T00:37:20;6.80;;;2.80;;
54871;SDS011;43914;57.680;11.982;2023-07-29T00:39:46;7.70;;;2.50;;
54871;SDS011;43914;57.680;11.982;2023-07-29T00:42:12;6.40;;;2.60;;
54871;SDS011;43914;57.680;11.982;2023-07-29T00:44:37;6.70;;;2.50;;
54871;SDS011;43914;57.680;11.982;2023-07-29T00:47:03;7.00;;;2.80;;
54871;SDS011;43914;57.680;11.982;2023-07-29T00:49:31;8.80;;;2.60;;
54871;SDS011;43914;57.680;11.982;2023-07-29T00:51:57;7.10;;;2.70;;
54871;SDS011;43914;57.680;11.982;2023-07-29T00:54:23;6.70;;;2.70;;
54871;SDS011;43914;57.680;11.982;2023-07-29T00:56:48;10.40;;;2.80;;
54871;SDS011;43914;57.680;11.982;2023-07-29T00:59:15;7.40;;;2.80;;
54871;SDS011;43914;57.680;11.982;2023-07-29T01:01:40;8.00;;;2.60;;
54871;SDS011;43914;57.680;11.982;2023-07-29T01:04:06;8.20;;;2.80;;
54871;SDS011;43914;57.680;11.982;2023-07-29T01:12:09;8.00;;;2.70;;
54871;SDS011;43914;57.680;11.982;2023-07-29T01:14:44;6.70;;;3.10;;
54871;SDS011;43914;57.680;11.982;2023-07-29T01:17:20;9.60;;;2.80;;
54871;SDS011;43914;57.680;11.982;2023-07-29T01:22:26;6.90;;;2.90;;
54871;SDS011;43914;57.680;11.982;2023-07-29T01:24:53;8.00;;;2.90;;
54871;SDS011;43914;57.680;11.982;2023-07-29T01:27:19;8.00;;;3.00;;
54871;SDS011;43914;57.680;11.982;2023-07-29T01:29:44;9.90;;;3.00;;
54871;SDS011;43914;57.680;11.982;2023-07-29T01:38:02;7.60;;;3.20;;
54871;SDS011;43914;57.680;11.982;2023-07-29T01:40:48;10.10;;;3.20;;
54871;SDS011;43914;57.680;11.982;2023-07-29T01:43:16;7.10;;;2.90;;
54871;SDS011;43914;57.680;11.982;2023-07-29T01:45:44;7.70;;;3.00;;
54871;SDS011;43914;57.680;11.982;2023-07-29T01:48:10;9.80;;;3.30;;
54871;SDS011;43914;57.680;11.982;2023-07-29T01:50:35;7.20;;;2.90;;
54871;SDS011;43914;57.680;11.982;2023-07-29T01:53:00;6.20;;;2.70;;
54871;SDS011;43914;57.680;11.982;2023-07-29T01:55:26;7.50;;;3.30;;
54871;SDS011;43914;57.680;11.982;2023-07-29T01:57:51;6.90;;;3.20;;
54871;SDS011;43914;57.680;11.982;2023-07-29T02:00:20;8.20;;;3.30;;
54871;SDS011;43914;57.680;11.982;2023-07-29T02:02:47;9.40;;;3.90;;
54871;SDS011;43914;57.680;11.982;2023-07-29T02:05:15;7.10;;;3.10;;
54871;SDS011;43914;57.680;11.982;2023-07-29T02:07:40;6.50;;;2.80;;
54871;SDS011;43914;57.680;11.982;2023-07-29T02:10:06;6.40;;;2.70;;
54871;SDS011;43914;57.680;11.982;2023-07-29T02:12:33;7.80;;;3.10;;
54871;SDS011;43914;57.680;11.982;2023-07-29T02:14:59;8.40;;;3.10;;
54871;SDS011;43914;57.680;11.982;2023-07-29T02:17:24;7.60;;;3.40;;
54871;SDS011;43914;57.680;11.982;2023-07-29T02:19:51;7.00;;;3.20;;
54871;SDS011;43914;57.680;11.982;2023-07-29T02:22:17;7.70;;;3.00;;
54871;SDS011;43914;57.680;11.982;2023-07-29T02:24:43;7.40;;;3.20;;
54871;SDS011;43914;57.680;11.982;2023-07-29T02:27:10;8.60;;;3.20;;
54871;SDS011;43914;57.680;11.982;2023-07-29T02:29:35;9.80;;;3.40;;
54871;SDS011;43914;57.680;11.982;2023-07-29T02:32:01;7.60;;;2.90;;
54871;SDS011;43914;57.680;11.982;2023-07-29T02:34:27;7.10;;;3.30;;
54871;SDS011;43914;57.680;11.982;2023-07-29T02:36:53;7.60;;;3.10;;
54871;SDS011;43914;57.680;11.982;2023-07-29T02:39:18;7.20;;;2.70;;
54871;SDS011;43914;57.680;11.982;2023-07-29T02:41:44;7.50;;;3.40;;
54871;SDS011;43914;57.680;11.982;2023-07-29T02:44:09;8.80;;;3.10;;
54871;SDS011;43914;57.680;11.982;2023-07-29T02:46:34;7.90;;;3.60;;
54871;SDS011;43914;57.680;11.982;2023-07-29T02:49:01;8.30;;;3.20;;
54871;SDS011;43914;57.680;11.982;2023-07-29T02:51:28;8.10;;;3.30;;
54871;SDS011;43914;57.680;11.982;2023-07-29T02:53:55;7.40;;;3.00;;
54871;SDS011;43914;57.680;11.982;2023-07-29T02:56:20;8.00;;;3.20;;
54871;SDS011;43914;57.680;11.982;2023-07-29T02:58:46;7.30;;;3.10;;
54871;SDS011;43914;57.680;11.982;2023-07-29T03:01:11;6.90;;;3.00;;
54871;SDS011;43914;57.680;11.982;2023-07-29T03:03:37;6.70;;;2.90;;
54871;SDS011;43914;57.680;11.982;2023-07-29T03:06:03;6.70;;;3.10;;
54871;SDS011;43914;57.680;11.982;2023-07-29T03:08:33;6.70;;;2.90;;
54871;SDS011;43914;57.680;11.982;2023-07-29T03:11:04;7.00;;;2.90;;
54871;SDS011;43914;57.680;11.982;2023-07-29T03:13:32;7.00;;;2.80;;
54871;SDS011;43914;57.680;11.982;2023-07-29T03:16:31;8.20;;;3.10;;
54871;SDS011;43914;57.680;11.982;2023-07-29T03:18:50;8.30;;;2.90;;
54871;SDS011;43914;57.680;11.982;2023-07-29T03:21:15;7.30;;;3.50;;
54871;SDS011;43914;57.680;11.982;2023-07-29T03:23:41;6.90;;;2.90;;
54871;SDS011;43914;57.680;11.982;2023-07-29T03:26:06;9.10;;;3.40;;
54871;SDS011;43914;57.680;11.982;2023-07-29T03:28:36;9.90;;;4.00;;
54871;SDS011;43914;57.680;11.982;2023-07-29T03:31:09;9.30;;;3.40;;
54871;SDS011;43914;57.680;11.982;2023-07-29T03:33:35;8.10;;;3.10;;
54871;SDS011;43914;57.680;11.982;2023-07-29T03:36:01;7.50;;;2.80;;
54871;SDS011;43914;57.680;11.982;2023-07-29T03:38:27;6.60;;;2.70;;
54871;SDS011;43914;57.680;11.982;2023-07-29T03:40:52;7.50;;;2.80;;
54871;SDS011;43914;57.680;11.982;2023-07-29T03:43:19;6.70;;;2.80;;
54871;SDS011;43914;57.680;11.982;2023-07-29T03:45:45;9.20;;;3.20;;
54871;SDS011;43914;57.680;11.982;2023-07-29T03:48:10;6.80;;;2.70;;
54871;SDS011;43914;57.680;11.982;2023-07-29T03:50:36;7.70;;;3.20;;
54871;SDS011;43914;57.680;11.982;2023-07-29T03:53:02;9.40;;;3.30;;
54871;SDS011;43914;57.680;11.982;2023-07-29T03:55:29;6.70;;;2.80;;
54871;SDS011;43914;57.680;11.982;2023-07-29T03:57:55;6.90;;;3.10;;
54871;SDS011;43914;57.680;11.982;2023-07-29T04:00:21;6.80;;;2.90;;
54871;SDS011;43914;57.680;11.982;2023-07-29T04:02:47;7.20;;;2.80;;
54871;SDS011;43914;57.680;11.982;2023-07-29T04:05:12;10.30;;;3.00;;
54871;SDS011;43914;57.680;11.982;2023-07-29T04:07:38;7.50;;;3.10;;
54871;SDS011;43914;57.680;11.982;2023-07-29T04:10:05;8.50;;;3.30;;
54871;SDS011;43914;57.680;11.982;2023-07-29T04:12:31;7.80;;;2.90;;
54871;SDS011;43914;57.680;11.982;2023-07-29T04:14:56;7.20;;;3.00;;
54871;SDS011;43914;57.680;11.982;2023-07-29T04:17:22;7.00;;;3.30;;
54871;SDS011;43914;57.680;11.982;2023-07-29T04:19:47;7.70;;;3.10;;
54871;SDS011;43914;57.680;11.982;2023-07-29T04:22:14;9.50;;;3.30;;
54871;SDS011;43914;57.680;11.982;2023-07-29T04:24:41;7.50;;;3.10;;
54871;SDS011;43914;57.680;11.982;2023-07-29T04:27:06;7.70;;;3.30;;
54871;SDS011;43914;57.680;11.982;2023-07-29T04:29:32;7.40;;;3.20;;
54871;SDS011;43914;57.680;11.982;2023-07-29T04:31:57;8.00;;;3.30;;
54871;SDS011;43914;57.680;11.982;2023-07-29T04:34:23;7.60;;;3.20;;
54871;SDS011;43914;57.680;11.982;2023-07-29T04:36:48;9.10;;;3.50;;
54871;SDS011;43914;57.680;11.982;2023-07-29T04:39:16;7.00;;;3.10;;
54871;SDS011;43914;57.680;11.982;2023-07-29T04:41:41;8.40;;;3.40;;
54871;SDS011;43914;57.680;11.982;2023-07-29T04:44:07;7.60;;;3.20;;
54871;SDS011;43914;57.680;11.982;2023-07-29T04:46:32;7.50;;;3.10;;
54871;SDS011;43914;57.680;11.982;2023-07-29T04:48:58;7.90;;;3.40;;
54871;SDS011;43914;57.680;11.982;2023-07-29T04:51:24;7.80;;;3.40;;
54871;SDS011;43914;57.680;11.982;2023-07-29T04:53:50;8.30;;;3.40;;
54871;SDS011;43914;57.680;11.982;2023-07-29T04:56:16;7.60;;;3.40;;
54871;SDS011;43914;57.680;11.982;2023-07-29T04:58:41;9.40;;;3.60;;
54871;SDS011;43914;57.680;11.982;2023-07-29T05:01:07;6.60;;;3.00;;
54871;SDS011;43914;57.680;11.982;2023-07-29T05:03:32;7.90;;;3.70;;
54871;SDS011;43914;57.680;11.982;2023-07-29T05:05:58;8.70;;;3.60;;
54871;SDS011;43914;57.680;11.982;2023-07-29T05:08:25;8.30;;;3.30;;
54871;SDS011;43914;57.680;11.982;2023-07-29T05:10:51;8.70;;;3.70;;
54871;SDS011;43914;57.680;11.982;2023-07-29T05:13:18;7.40;;;3.40;;
54871;SDS011;43914;57.680;11.982;2023-07-29T05:15:44;8.10;;;3.50;;
54871;SDS011;43914;57.680;11.982;2023-07-29T05:18:10;9.70;;;3.50;;
54871;SDS011;43914;57.680;11.982;2023-07-29T05:20:36;8.20;;;3.30;;
54871;SDS011;43914;57.680;11.982;2023-07-29T05:23:02;8.00;;;3.30;;
54871;SDS011;43914;57.680;11.982;2023-07-29T05:25:28;10.00;;;3.60;;
54871;SDS011;43914;57.680;11.982;2023-07-29T05:27:54;6.70;;;2.80;;
54871;SDS011;43914;57.680;11.982;2023-07-29T05:30:19;7.00;;;2.90;;
54871;SDS011;43914;57.680;11.982;2023-07-29T05:32:45;7.00;;;2.70;;
54871;SDS011;43914;57.680;11.982;2023-07-29T05:35:10;6.90;;;3.00;;
54871;SDS011;43914;57.680;11.982;2023-07-29T05:37:39;10.00;;;3.10;;
54871;SDS011;43914;57.680;11.982;2023-07-29T05:40:07;8.40;;;2.70;;
54871;SDS011;43914;57.680;11.982;2023-07-29T05:42:34;8.00;;;2.90;;
54871;SDS011;43914;57.680;11.982;2023-07-29T05:44:59;7.80;;;2.90;;
54871;SDS011;43914;57.680;11.982;2023-07-29T05:47:25;6.60;;;2.50;;
54871;SDS011;43914;57.680;11.982;2023-07-29T05:49:51;6.40;;;2.50;;
54871;SDS011;43914;57.680;11.982;2023-07-29T05:52:17;6.50;;;2.40;;
54871;SDS011;43914;57.680;11.982;2023-07-29T05:54:42;7.60;;;2.40;;
54871;SDS011;43914;57.680;11.982;2023-07-29T05:57:11;6.20;;;2.50;;
54871;SDS011;43914;57.680;11.982;2023-07-29T05:59:37;5.50;;;2.20;;
54871;SDS011;43914;57.680;11.982;2023-07-29T06:02:04;5.90;;;2.50;;
54871;SDS011;43914;57.680;11.982;2023-07-29T06:04:30;7.90;;;2.40;;
54871;SDS011;43914;57.680;11.982;2023-07-29T06:06:56;6.30;;;2.50;;
54871;SDS011;43914;57.680;11.982;2023-07-29T06:09:22;6.80;;;2.50;;
54871;SDS011;43914;57.680;11.982;2023-07-29T06:11:47;7.00;;;2.50;;
54871;SDS011;43914;57.680;11.982;2023-07-29T06:14:13;5.60;;;2.30;;
54871;SDS011;43914;57.680;11.982;2023-07-29T06:16:39;7.80;;;2.50;;
54871;SDS011;43914;57.680;11.982;2023-07-29T06:19:04;9.20;;;2.60;;
54871;SDS011;43914;57.680;11.982;2023-07-29T06:21:30;6.40;;;2.30;;
54871;SDS011;43914;57.680;11.982;2023-07-29T06:23:56;6.50;;;2.40;;
54871;SDS011;43914;57.680;11.982;2023-07-29T06:26:22;5.70;;;2.10;;
54871;SDS011;43914;57.680;11.982;2023-07-29T06:28:48;5.60;;;2.00;;
54871;SDS011;43914;57.680;11.982;2023-07-29T06:31:13;6.00;;;2.30;;
54871;SDS011;43914;57.680;11.982;2023-07-29T06:33:39;5.60;;;2.20;;
54871;SDS011;43914;57.680;11.982;2023-07-29T06:36:05;6.40;;;2.30;;
54871;SDS011;43914;57.680;11.982;2023-07-29T06:38:30;7.10;;;2.50;;
54871;SDS011;43914;57.680;11.982;2023-07-29T06:40:56;6.50;;;2.30;;
54871;SDS011;43914;57.680;11.982;2023-07-29T06:43:22;6.00;;;2.10;;
54871;SDS011;43914;57.680;11.982;2023-07-29T06:45:47;6.00;;;2.30;;
54871;SDS011;43914;57.680;11.982;2023-07-29T06:48:13;6.90;;;2.40;;
54871;SDS011;43914;57.680;11.982;2023-07-29T06:50:38;6.00;;;2.20;;
54871;SDS011;43914;57.680;11.982;2023-07-29T06:53:04;6.40;;;2.00;;
54871;SDS011;43914;57.680;11.982;2023-07-29T06:55:29;7.50;;;2.20;;
54871;SDS011;43914;57.680;11.982;2023-07-29T06:57:55;6.30;;;2.10;;
54871;SDS011;43914;57.680;11.982;2023-07-29T07:00:20;6.50;;;2.20;;
54871;SDS011;43914;57.680;11.982;2023-07-29T07:02:45;6.70;;;2.40;;
54871;SDS011;43914;57.680;11.982;2023-07-29T07:05:11;10.60;;;2.20;;
54871;SDS011;43914;57.680;11.982;2023-07-29T07:07:36;6.90;;;2.20;;
54871;SDS011;43914;57.680;11.982;2023-07-29T07:10:03;5.90;;;2.30;;
54871;SDS011;43914;57.680;11.982;2023-07-29T07:12:29;7.70;;;2.20;;
54871;SDS011;43914;57.680;11.982;2023-07-29T07:14:54;7.70;;;2.30;;
54871;SDS011;43914;57.680;11.982;2023-07-29T07:17:20;5.80;;;2.20;;
54871;SDS011;43914;57.680;11.982;2023-07-29T07:19:45;6.50;;;2.00;;
54871;SDS011;43914;57.680;11.982;2023-07-29T07:22:11;6.20;;;2.00;;
54871;SDS011;43914;57.680;11.982;2023-07-29T07:24:37;7.60;;;2.10;;
54871;SDS011;43914;57.680;11.982;2023-07-29T07:27:02;8.20;;;2.20;;
54871;SDS011;43914;57.680;11.982;2023-07-29T07:29:28;7.60;;;2.10;;
54871;SDS011;43914;57.680;11.982;2023-07-29T07:31:56;6.30;;;2.10;;
54871;SDS011;43914;57.680;11.982;2023-07-29T07:34:22;7.30;;;2.70;;
54871;SDS011;43914;57.680;11.982;2023-07-29T07:36:48;6.00;;;2.10;;
54871;SDS011;43914;57.680;11.982;2023-07-29T07:39:14;7.10;;;2.20;;
54871;SDS011;43914;57.680;11.982;2023-07-29T07:41:40;5.40;;;2.00;;
54871;SDS011;43914;57.680;11.982;2023-07-29T07:44:06;6.40;;;2.20;;
54871;SDS011;43914;57.680;11.982;2023-07-29T07:46:31;7.70;;;2.50;;
54871;SDS011;43914;57.680;11.982;2023-07-29T07:48:56;6.20;;;1.90;;
54871;SDS011;43914;57.680;11.982;2023-07-29T07:51:22;5.40;;;2.10;;
54871;SDS011;43914;57.680;11.982;2023-07-29T07:53:48;6.00;;;2.10;;
54871;SDS011;43914;57.680;11.982;2023-07-29T07:56:13;6.00;;;2.00;;
54871;SDS011;43914;57.680;11.982;2023-07-29T07:58:40;5.80;;;2.00;;
54871;SDS011;43914;57.680;11.982;2023-07-29T08:01:06;5.70;;;2.00;;
54871;SDS011;43914;57.680;11.982;2023-07-29T08:03:33;8.20;;;2.60;;
54871;SDS011;43914;57.680;11.982;2023-07-29T08:05:59;5.90;;;2.20;;
54871;SDS011;43914;57.680;11.982;2023-07-29T08:08:25;7.60;;;2.10;;
54871;SDS011;43914;57.680;11.982;2023-07-29T08:10:56;6.30;;;2.20;;
54871;SDS011;43914;57.680;11.982;2023-07-29T08:13:22;7.80;;;2.10;;
54871;SDS011;43914;57.680;11.982;2023-07-29T08:15:50;7.20;;;2.00;;
54871;SDS011;43914;57.680;11.982;2023-07-29T08:18:17;6.70;;;2.30;;
54871;SDS011;43914;57.680;11.982;2023-07-29T08:23:19;6.10;;;2.20;;
54871;SDS011;43914;57.680;11.982;2023-07-29T08:25:44;7.00;;;2.40;;
54871;SDS011;43914;57.680;11.982;2023-07-29T08:28:10;7.20;;;2.20;;
54871;SDS011;43914;57.680;11.982;2023-07-29T08:30:36;9.40;;;2.60;;
54871;SDS011;43914;57.680;11.982;2023-07-29T08:33:01;7.70;;;2.80;;
54871;SDS011;43914;57.680;11.982;2023-07-29T08:35:27;6.90;;;2.20;;
54871;SDS011;43914;57.680;11.982;2023-07-29T08:37:52;8.20;;;2.50;;
54871;SDS011;43914;57.680;11.982;2023-07-29T08:40:18;7.30;;;2.10;;
54871;SDS011;43914;57.680;11.982;2023-07-29T08:42:45;10.70;;;2.80;;
54871;SDS011;43914;57.680;11.982;2023-07-29T08:45:13;9.20;;;2.50;;
54871;SDS011;43914;57.680;11.982;2023-07-29T08:47:41;7.00;;;2.40;;
54871;SDS011;43914;57.680;11.982;2023-07-29T08:50:07;7.30;;;2.40;;
54871;SDS011;43914;57.680;11.982;2023-07-29T08:52:33;8.00;;;2.50;;
54871;SDS011;43914;57.680;11.982;2023-07-29T08:55:00;6.10;;;2.40;;
54871;SDS011;43914;57.680;11.982;2023-07-29T08:57:26;6.90;;;2.30;;
54871;SDS011;43914;57.680;11.982;2023-07-29T08:59:52;6.20;;;2.20;;
54871;SDS011;43914;57.680;11.982;2023-07-29T09:02:18;6.50;;;2.10;;
54871;SDS011;43914;57.680;11.982;2023-07-29T09:04:43;7.20;;;2.20;;
54871;SDS011;43914;57.680;11.982;2023-07-29T09:07:08;9.20;;;2.50;;
54871;SDS011;43914;57.680;11.982;2023-07-29T09:09:34;8.20;;;2.60;;
54871;SDS011;43914;57.680;11.982;2023-07-29T09:12:01;7.80;;;2.30;;
54871;SDS011;43914;57.680;11.982;2023-07-29T09:14:26;7.10;;;2.70;;
54871;SDS011;43914;57.680;11.982;2023-07-29T09:16:53;8.20;;;2.40;;
54871;SDS011;43914;57.680;11.982;2023-07-29T09:19:18;7.10;;;2.60;;
54871;SDS011;43914;57.680;11.982;2023-07-29T09:21:45;8.40;;;2.50;;
54871;SDS011;43914;57.680;11.982;2023-07-29T09:24:12;7.30;;;2.30;;
54871;SDS011;43914;57.680;11.982;2023-07-29T09:26:40;6.50;;;2.50;;
54871;SDS011;43914;57.680;11.982;2023-07-29T09:29:14;7.50;;;2.80;;
54871;SDS011;43914;57.680;11.982;2023-07-29T09:31:40;7.70;;;2.90;;
54871;SDS011;43914;57.680;11.982;2023-07-29T09:34:05;8.20;;;2.60;;
54871;SDS011;43914;57.680;11.982;2023-07-29T09:36:31;10.90;;;2.70;;
54871;SDS011;43914;57.680;11.982;2023-07-29T09:38:59;8.40;;;3.20;;
54871;SDS011;43914;57.680;11.982;2023-07-29T09:41:25;9.20;;;2.80;;
54871;SDS011;43914;57.680;11.982;2023-07-29T09:43:55;8.20;;;2.70;;
54871;SDS011;43914;57.680;11.982;2023-07-29T09:46:23;7.90;;;2.90;;
54871;SDS011;43914;57.680;11.982;2023-07-29T09:48:52;7.70;;;2.80;;
54871;SDS011;43914;57.680;11.982;2023-07-29T09:51:20;7.70;;;2.90;;
54871;SDS011;43914;57.680;11.982;2023-07-29T09:53:46;7.20;;;2.70;;
54871;SDS011;43914;57.680;11.982;2023-07-29T09:56:13;7.50;;;2.80;;
54871;SDS011;43914;57.680;11.982;2023-07-29T09:58:39;8.70;;;3.10;;
54871;SDS011;43914;57.680;11.982;2023-07-29T10:01:07;9.20;;;2.60;;
54871;SDS011;43914;57.680;11.982;2023-07-29T10:03:34;8.40;;;2.70;;
54871;SDS011;43914;57.680;11.982;2023-07-29T10:06:05;9.30;;;2.60;;
54871;SDS011;43914;57.680;11.982;2023-07-29T10:08:32;7.10;;;2.70;;
54871;SDS011;43914;57.680;11.982;2023-07-29T10:11:10;9.60;;;2.90;;
54871;SDS011;43914;57.680;11.982;2023-07-29T10:13:36;9.20;;;2.70;;
54871;SDS011;43914;57.680;11.982;2023-07-29T10:16:03;8.40;;;2.70;;
54871;SDS011;43914;57.680;11.982;2023-07-29T10:18:30;7.50;;;2.60;;
54871;SDS011;43914;57.680;11.982;2023-07-29T10:20:57;7.00;;;2.70;;
54871;SDS011;43914;57.680;11.982;2023-07-29T10:23:25;7.40;;;2.20;;
54871;SDS011;43914;57.680;11.982;2023-07-29T10:26:13;6.70;;;2.20;;
54871;SDS011;43914;57.680;11.982;2023-07-29T10:28:40;5.80;;;2.10;;
54871;SDS011;43914;57.680;11.982;2023-07-29T10:31:07;7.30;;;2.40;;
54871;SDS011;43914;57.680;11.982;2023-07-29T10:33:32;8.00;;;2.40;;
54871;SDS011;43914;57.680;11.982;2023-07-29T10:35:59;7.30;;;2.70;;
54871;SDS011;43914;57.680;11.982;2023-07-29T10:38:25;6.30;;;2.20;;
54871;SDS011;43914;57.680;11.982;2023-07-29T10:40:55;7.30;;;2.30;;
54871;SDS011;43914;57.680;11.982;2023-07-29T10:46:14;7.40;;;2.50;;
54871;SDS011;43914;57.680;11.982;2023-07-29T10:54:02;10.50;;;3.70;;
54871;SDS011;43914;57.680;11.982;2023-07-29T10:56:29;9.60;;;3.90;;
54871;SDS011;43914;57.680;11.982;2023-07-29T10:59:02;8.50;;;3.60;;
54871;SDS011;43914;57.680;11.982;2023-07-29T11:01:51;11.10;;;3.60;;
54871;SDS011;43914;57.680;11.982;2023-07-29T11:07:01;9.80;;;3.70;;
54871;SDS011;43914;57.680;11.982;2023-07-29T11:09:51;9.00;;;3.80;;
54871;SDS011;43914;57.680;11.982;2023-07-29T11:15:31;9.40;;;3.80;;
54871;SDS011;43914;57.680;11.982;2023-07-29T11:17:57;9.40;;;3.50;;
54871;SDS011;43914;57.680;11.982;2023-07-29T11:20:31;7.80;;;3.10;;
54871;SDS011;43914;57.680;11.982;2023-07-29T11:22:59;9.00;;;3.80;;
54871;SDS011;43914;57.680;11.982;2023-07-29T11:25:26;7.10;;;3.30;;
54871;SDS011;43914;57.680;11.982;2023-07-29T11:27:54;7.70;;;3.10;;
54871;SDS011;43914;57.680;11.982;2023-07-29T11:30:21;10.40;;;3.10;;
54871;SDS011;43914;57.680;11.982;2023-07-29T11:32:54;7.10;;;2.70;;
54871;SDS011;43914;57.680;11.982;2023-07-29T11:35:20;7.20;;;2.70;;
54871;SDS011;43914;57.680;11.982;2023-07-29T11:37:50;7.80;;;2.80;;
54871;SDS011;43914;57.680;11.982;2023-07-29T11:40:21;8.30;;;2.70;;
54871;SDS011;43914;57.680;11.982;2023-07-29T11:42:48;6.70;;;2.10;;
54871;SDS011;43914;57.680;11.982;2023-07-29T11:45:17;7.40;;;2.40;;
54871;SDS011;43914;57.680;11.982;2023-07-29T11:47:44;6.00;;;2.10;;
54871;SDS011;43914;57.680;11.982;2023-07-29T11:50:11;7.10;;;2.20;;
54871;SDS011;43914;57.680;11.982;2023-07-29T11:52:43;6.10;;;2.00;;
54871;SDS011;43914;57.680;11.982;2023-07-29T11:55:11;5.30;;;1.60;;
54871;SDS011;43914;57.680;11.982;2023-07-29T11:57:38;6.00;;;1.90;;
54871;SDS011;43914;57.680;11.982;2023-07-29T12:00:05;4.90;;;1.70;;
54871;SDS011;43914;57.680;11.982;2023-07-29T12:02:33;4.50;;;1.60;;
54871;SDS011;43914;57.680;11.982;2023-07-29T12:05:02;3.80;;;1.40;;
54871;SDS011;43914;57.680;11.982;2023-07-29T12:07:29;4.40;;;1.20;;
54871;SDS011;43914;57.680;11.982;2023-07-29T12:09:55;3.50;;;1.20;;
54871;SDS011;43914;57.680;11.982;2023-07-29T12:12:24;3.10;;;1.10;;
54871;SDS011;43914;57.680;11.982;2023-07-29T12:14:49;2.90;;;1.10;;
54871;SDS011;43914;57.680;11.982;2023-07-29T12:17:15;4.50;;;1.20;;
54871;SDS011;43914;57.680;11.982;2023-07-29T12:19:40;3.40;;;1.10;;
54871;SDS011;43914;57.680;11.982;2023-07-29T12:22:08;3.10;;;1.10;;
54871;SDS011;43914;57.680;11.982;2023-07-29T12:24:38;2.40;;;1.00;;
54871;SDS011;43914;57.680;11.982;2023-07-29T12:27:05;3.20;;;1.10;;
54871;SDS011;43914;57.680;11.982;2023-07-29T12:29:40;4.40;;;1.20;;
54871;SDS011;43914;57.680;11.982;2023-07-29T12:32:09;3.30;;;1.20;;
54871;SDS011;43914;57.680;11.982;2023-07-29T12:34:35;3.40;;;1.20;;
54871;SDS011;43914;57.680;11.982;2023-07-29T12:37:03;4.30;;;1.30;;
54871;SDS011;43914;57.680;11.982;2023-07-29T12:39:30;4.30;;;1.30;;
54871;SDS011;43914;57.680;11.982;2023-07-29T12:41:58;3.20;;;1.10;;
54871;SDS011;43914;57.680;11.982;2023-07-29T12:44:25;3.40;;;1.10;;
54871;SDS011;43914;57.680;11.982;2023-07-29T12:46:54;3.20;;;1.10;;
54871;SDS011;43914;57.680;11.982;2023-07-29T12:49:20;4.60;;;1.40;;
54871;SDS011;43914;57.680;11.982;2023-07-29T12:51:45;3.20;;;1.10;;
54871;SDS011;43914;57.680;11.982;2023-07-29T12:54:11;3.20;;;1.20;;
54871;SDS011;43914;57.680;11.982;2023-07-29T12:56:36;2.70;;;1.00;;
54871;SDS011;43914;57.680;11.982;2023-07-29T12:59:02;3.90;;;1.10;;
54871;SDS011;43914;57.680;11.982;2023-07-29T13:01:29;3.30;;;1.10;;
54871;SDS011;43914;57.680;11.982;2023-07-29T13:03:54;3.90;;;1.20;;
54871;SDS011;43914;57.680;11.982;2023-07-29T13:06:21;4.10;;;1.10;;
54871;SDS011;43914;57.680;11.982;2023-07-29T13:08:47;2.90;;;1.10;;
54871;SDS011;43914;57.680;11.982;2023-07-29T13:11:16;4.60;;;1.40;;
54871;SDS011;43914;57.680;11.982;2023-07-29T13:13:42;3.70;;;1.20;;
54871;SDS011;43914;57.680;11.982;2023-07-29T13:16:07;3.80;;;1.30;;
54871;SDS011;43914;57.680;11.982;2023-07-29T13:18:33;3.40;;;1.00;;
54871;SDS011;43914;57.680;11.982;2023-07-29T13:20:59;3.50;;;1.30;;
54871;SDS011;43914;57.680;11.982;2023-07-29T13:23:25;3.80;;;1.10;;
54871;SDS011;43914;57.680;11.982;2023-07-29T13:25:51;3.80;;;1.20;;
54871;SDS011;43914;57.680;11.982;2023-07-29T13:28:17;3.50;;;1.10;;
54871;SDS011;43914;57.680;11.982;2023-07-29T13:30:44;3.70;;;1.20;;
54871;SDS011;43914;57.680;11.982;2023-07-29T13:33:10;2.50;;;1.10;;
54871;SDS011;43914;57.680;11.982;2023-07-29T13:35:35;3.80;;;1.30;;
54871;SDS011;43914;57.680;11.982;2023-07-29T13:38:01;3.10;;;1.20;;
54871;SDS011;43914;57.680;11.982;2023-07-29T13:40:26;4.30;;;1.40;;
54871;SDS011;43914;57.680;11.982;2023-07-29T13:42:53;3.90;;;1.20;;
54871;SDS011;43914;57.680;11.982;2023-07-29T13:45:19;4.30;;;1.40;;
54871;SDS011;43914;57.680;11.982;2023-07-29T13:47:44;2.80;;;1.00;;
54871;SDS011;43914;57.680;11.982;2023-07-29T13:50:10;4.20;;;1.20;;
54871;SDS011;43914;57.680;11.982;2023-07-29T13:52:36;3.60;;;1.20;;
54871;SDS011;43914;57.680;11.982;2023-07-29T13:55:02;3.50;;;1.20;;
54871;SDS011;43914;57.680;11.982;2023-07-29T13:57:28;3.40;;;1.20;;
54871;SDS011;43914;57.680;11.982;2023-07-29T13:59:54;3.00;;;1.10;;
54871;SDS011;43914;57.680;11.982;2023-07-29T14:02:19;3.20;;;1.10;;
54871;SDS011;43914;57.680;11.982;2023-07-29T14:04:45;4.40;;;1.30;;
54871;SDS011;43914;57.680;11.982;2023-07-29T14:07:10;3.80;;;1.30;;
54871;SDS011;43914;57.680;11.982;2023-07-29T14:09:35;3.50;;;1.00;;
54871;SDS011;43914;57.680;11.982;2023-07-29T14:12:02;2.80;;;1.00;;
54871;SDS011;43914;57.680;11.982;2023-07-29T14:14:28;3.00;;;1.00;;
54871;SDS011;43914;57.680;11.982;2023-07-29T14:16:53;2.70;;;1.00;;
54871;SDS011;43914;57.680;11.982;2023-07-29T14:19:19;3.10;;;1.00;;
54871;SDS011;43914;57.680;11.982;2023-07-29T14:21:44;2.60;;;0.90;;
54871;SDS011;43914;57.680;11.982;2023-07-29T14:24:10;2.50;;;0.90;;
54871;SDS011;43914;57.680;11.982;2023-07-29T14:26:38;3.20;;;0.90;;
54871;SDS011;43914;57.680;11.982;2023-07-29T14:29:03;3.10;;;1.10;;
54871;SDS011;43914;57.680;11.982;2023-07-29T14:31:29;2.20;;;0.90;;
54871;SDS011;43914;57.680;11.982;2023-07-29T14:33:54;4.20;;;1.20;;
54871;SDS011;43914;57.680;11.982;2023-07-29T14:36:20;2.70;;;1.00;;
54871;SDS011;43914;57.680;11.982;2023-07-29T14:38:46;3.80;;;1.10;;
54871;SDS011;43914;57.680;11.982;2023-07-29T14:41:11;4.50;;;1.20;;
54871;SDS011;43914;57.680;11.982;2023-07-29T14:43:37;3.70;;;1.10;;
54871;SDS011;43914;57.680;11.982;2023-07-29T14:46:03;3.70;;;1.00;;
54871;SDS011;43914;57.680;11.982;2023-07-29T14:48:29;3.40;;;1.00;;
54871;SDS011;43914;57.680;11.982;2023-07-29T14:50:54;2.40;;;1.10;;
54871;SDS011;43914;57.680;11.982;2023-07-29T14:53:20;3.40;;;1.10;;
54871;SDS011;43914;57.680;11.982;2023-07-29T14:55:45;4.50;;;1.20;;
54871;SDS011;43914;57.680;11.982;2023-07-29T14:58:11;3.40;;;1.10;;
54871;SDS011;43914;57.680;11.982;2023-07-29T15:00:36;3.20;;;1.10;;